createdAt,value
2022-10-05T00:02:19.475Z,16.70
2022-10-05T00:04:50.098Z,16.00
2022-10-05T00:07:20.490Z,16.30
2022-10-05T00:09:58.804Z,16.30
2022-10-05T00:13:24.156Z,15.90
2022-10-05T00:16:21.375Z,15.50
2022-10-05T00:18:51.910Z,14.90
2022-10-05T00:21:24.665Z,14.40
2022-10-05T00:24:15.665Z,14.80
2022-10-05T00:27:21.440Z,14.80
2022-10-05T00:29:51.972Z,14.00
2022-10-05T00:32:21.100Z,13.70
2022-10-05T00:34:49.332Z,14.30
2022-10-05T00:37:19.255Z,15.40
2022-10-05T00:39:49.737Z,14.30
2022-10-05T00:42:39.602Z,12.00
2022-10-05T00:45:36.629Z,12.50
2022-10-05T00:48:32.868Z,14.10
2022-10-05T00:51:28.434Z,13.70
2022-10-05T00:54:01.254Z,14.70
2022-10-05T00:56:40.123Z,13.40
2022-10-05T00:59:40.188Z,11.90
2022-10-05T01:02:39.339Z,12.80
2022-10-05T01:06:09.683Z,12.80
2022-10-05T01:09:23.404Z,13.00
2022-10-05T01:12:15.520Z,14.30
2022-10-05T01:14:53.979Z,13.50
2022-10-05T01:17:44.895Z,14.40
2022-10-05T01:20:39.733Z,13.30
2022-10-05T01:23:28.644Z,11.80
2022-10-05T01:26:42.215Z,13.50
2022-10-05T01:29:23.208Z,14.30
2022-10-05T01:32:20.430Z,13.10
2022-10-05T01:34:59.048Z,12.70
2022-10-05T01:37:31.292Z,12.00
2022-10-05T01:40:01.914Z,14.10
2022-10-05T01:42:35.773Z,13.60
2022-10-05T01:45:06.609Z,12.70
2022-10-05T01:47:48.158Z,14.40
2022-10-05T01:50:35.333Z,11.40
2022-10-05T01:53:24.721Z,13.20
2022-10-05T01:56:30.626Z,13.50
2022-10-05T01:59:30.675Z,13.00
2022-10-05T02:02:04.284Z,11.50
2022-10-05T02:05:00.863Z,12.00
2022-10-05T02:07:36.656Z,12.70
2022-10-05T02:10:50.165Z,13.40
2022-10-05T02:13:48.874Z,10.30
2022-10-05T02:16:39.498Z,11.20
2022-10-05T02:19:42.336Z,10.60
2022-10-05T02:22:30.665Z,12.00
2022-10-05T02:25:21.422Z,11.40
2022-10-05T02:28:19.360Z,11.50
2022-10-05T02:31:01.560Z,12.20
2022-10-05T02:33:33.582Z,14.10
2022-10-05T02:36:18.190Z,13.00
2022-10-05T02:38:49.564Z,12.20
2022-10-05T02:41:36.752Z,13.50
2022-10-05T02:44:14.501Z,12.60
2022-10-05T02:47:04.111Z,12.10
2022-10-05T02:50:00.588Z,12.20
2022-10-05T02:52:44.599Z,13.60
2022-10-05T02:55:13.752Z,13.20
2022-10-05T02:57:53.181Z,13.60
2022-10-05T03:00:39.434Z,15.40
2022-10-05T03:03:29.906Z,13.00
2022-10-05T03:06:22.567Z,13.80
2022-10-05T03:09:06.526Z,15.90
2022-10-05T03:12:00.610Z,13.80
2022-10-05T03:14:37.498Z,11.70
2022-10-05T03:17:16.295Z,13.30
2022-10-05T03:19:54.316Z,14.10
2022-10-05T03:23:00.019Z,12.90
2022-10-05T03:26:09.762Z,14.80
2022-10-05T03:28:55.406Z,13.00
2022-10-05T03:31:31.723Z,13.30
2022-10-05T03:34:10.342Z,14.60
2022-10-05T03:36:53.085Z,14.80
2022-10-05T03:39:34.447Z,12.80
2022-10-05T03:42:35.143Z,12.20
2022-10-05T03:45:50.965Z,16.60
2022-10-05T03:48:51.005Z,13.10
2022-10-05T03:51:45.463Z,12.50
2022-10-05T03:54:44.985Z,12.60
2022-10-05T03:57:37.600Z,13.10
2022-10-05T04:00:12.986Z,12.00
2022-10-05T04:03:04.585Z,14.80
2022-10-05T04:06:02.522Z,18.60
2022-10-05T04:08:48.207Z,21.50
2022-10-05T04:11:26.689Z,15.30
2022-10-05T04:14:05.221Z,12.30
2022-10-05T04:16:42.980Z,11.40
2022-10-05T04:19:39.572Z,14.10
2022-10-05T04:22:37.407Z,12.00
2022-10-05T04:25:32.401Z,14.20
2022-10-05T04:28:18.890Z,13.50
2022-10-05T04:30:51.298Z,11.40
2022-10-05T04:33:21.285Z,13.50
2022-10-05T04:36:26.761Z,13.50
2022-10-05T04:38:58.091Z,15.70
2022-10-05T04:41:53.574Z,22.60
2022-10-05T04:44:39.534Z,23.10
2022-10-05T04:47:51.495Z,26.40
2022-10-05T04:50:47.740Z,23.90
2022-10-05T04:53:36.187Z,18.90
2022-10-05T04:56:07.316Z,17.00
2022-10-05T04:59:13.157Z,17.00
2022-10-05T05:02:17.376Z,17.50
2022-10-05T05:05:20.954Z,19.50
2022-10-05T05:08:06.906Z,17.40
2022-10-05T05:11:20.060Z,19.60
2022-10-05T05:14:19.746Z,18.60
2022-10-05T05:17:01.672Z,64.60
2022-10-05T05:20:35.013Z,23.20
2022-10-05T05:23:36.150Z,17.10
2022-10-05T05:26:15.163Z,16.80
2022-10-05T05:29:39.230Z,16.30
2022-10-05T05:32:35.393Z,15.00
2022-10-05T05:35:14.951Z,14.40
2022-10-05T05:38:21.161Z,13.60
2022-10-05T05:41:09.909Z,13.50
2022-10-05T05:44:02.648Z,13.50
2022-10-05T05:47:44.620Z,12.80
2022-10-05T05:50:38.604Z,12.30
2022-10-05T05:53:07.541Z,13.90
2022-10-05T05:56:04.648Z,13.30
2022-10-05T05:58:39.667Z,13.20
2022-10-05T06:01:31.813Z,14.30
2022-10-05T06:04:28.756Z,13.40
2022-10-05T06:07:03.421Z,30.00
2022-10-05T06:09:42.015Z,17.60
2022-10-05T06:12:37.664Z,15.50
2022-10-05T06:15:44.703Z,14.10
2022-10-05T06:18:16.886Z,14.30
2022-10-05T06:21:28.594Z,14.80
2022-10-05T06:24:17.051Z,14.50
2022-10-05T06:26:58.532Z,13.10
2022-10-05T06:30:14.134Z,13.00
2022-10-05T06:32:55.184Z,12.30
2022-10-05T06:35:42.866Z,15.00
2022-10-05T06:38:23.336Z,12.80
2022-10-05T06:41:03.794Z,13.50
2022-10-05T06:43:44.119Z,11.90
2022-10-05T06:46:44.890Z,13.80
2022-10-05T06:49:37.206Z,14.70
2022-10-05T06:52:40.495Z,16.90
2022-10-05T06:55:39.626Z,16.30
2022-10-05T06:59:16.802Z,12.40
2022-10-05T07:01:51.847Z,12.10
2022-10-05T07:04:48.934Z,11.80
2022-10-05T07:07:45.896Z,12.90
2022-10-05T07:10:32.666Z,12.60
2022-10-05T07:13:38.789Z,14.40
2022-10-05T07:17:00.496Z,14.00
2022-10-05T07:20:14.560Z,12.90
2022-10-05T07:23:07.022Z,14.10
2022-10-05T07:25:58.777Z,12.80
2022-10-05T07:28:43.610Z,12.10
2022-10-05T07:31:28.369Z,11.90
2022-10-05T07:34:30.967Z,12.00
2022-10-05T07:37:50.477Z,11.70
2022-10-05T07:40:53.159Z,13.50
2022-10-05T07:44:02.169Z,10.60
2022-10-05T07:47:25.290Z,11.10
2022-10-05T07:49:58.090Z,11.50
2022-10-05T07:52:39.904Z,10.70
2022-10-05T07:55:21.810Z,10.70
2022-10-05T07:58:15.766Z,10.70
2022-10-05T08:01:04.865Z,11.10
2022-10-05T08:03:56.870Z,10.20
2022-10-05T08:06:49.190Z,10.10
2022-10-05T08:09:39.027Z,10.30
2022-10-05T08:12:26.535Z,8.90
2022-10-05T08:15:03.815Z,9.90
2022-10-05T08:17:57.054Z,9.50
2022-10-05T08:20:52.090Z,9.10
2022-10-05T08:23:31.098Z,10.20
2022-10-05T08:26:10.882Z,9.20
2022-10-05T08:28:47.168Z,9.80
2022-10-05T08:31:23.560Z,10.10
2022-10-05T08:33:59.895Z,10.40
2022-10-05T08:36:55.915Z,7.70
2022-10-05T08:40:09.960Z,10.70
2022-10-05T08:43:05.541Z,9.80
2022-10-05T08:46:22.701Z,8.90
2022-10-05T08:49:40.046Z,8.70
2022-10-05T08:52:38.930Z,8.40
2022-10-05T08:55:34.676Z,10.70
2022-10-05T08:58:37.909Z,7.30
2022-10-05T09:01:23.129Z,8.50
2022-10-05T09:04:14.216Z,8.60
2022-10-05T09:07:01.697Z,9.40
2022-10-05T09:09:50.099Z,10.10
2022-10-05T09:13:06.081Z,8.20
2022-10-05T09:15:58.373Z,8.70
2022-10-05T09:18:28.487Z,8.60
2022-10-05T09:21:07.253Z,8.50
2022-10-05T09:24:03.485Z,8.10
2022-10-05T09:27:06.812Z,9.00
2022-10-05T09:29:46.506Z,8.40
2022-10-05T09:32:47.092Z,8.20
2022-10-05T09:35:34.637Z,8.80
2022-10-05T09:38:24.884Z,8.20
2022-10-05T09:41:21.720Z,8.40
2022-10-05T09:44:23.628Z,8.70
2022-10-05T09:47:04.789Z,7.90
2022-10-05T09:50:00.475Z,9.40
2022-10-05T09:53:05.259Z,8.80
2022-10-05T09:59:23.736Z,7.40
2022-10-05T10:02:14.567Z,9.70
2022-10-05T10:05:10.111Z,10.30
2022-10-05T10:08:14.963Z,15.80
2022-10-05T10:11:16.361Z,10.00
2022-10-05T10:14:20.102Z,8.00
2022-10-05T10:17:07.003Z,9.30
2022-10-05T10:20:22.701Z,8.90
2022-10-05T10:22:59.274Z,7.90
2022-10-05T10:26:03.021Z,7.10
2022-10-05T10:28:52.792Z,8.20
2022-10-05T10:31:26.704Z,8.40
2022-10-05T10:34:20.581Z,6.70
2022-10-05T10:37:11.148Z,8.40
2022-10-05T10:40:17.718Z,7.80
2022-10-05T10:43:22.366Z,7.40
2022-10-05T10:46:20.967Z,6.90
2022-10-05T10:48:50.361Z,7.10
2022-10-05T10:51:56.776Z,7.00
2022-10-05T10:55:05.196Z,8.90
2022-10-05T10:58:02.345Z,6.80
2022-10-05T11:00:54.712Z,8.10
2022-10-05T11:03:54.211Z,7.70
2022-10-05T11:07:02.151Z,11.20
2022-10-05T11:09:59.381Z,7.90
2022-10-05T11:12:48.756Z,7.80
2022-10-05T11:15:28.515Z,8.90
2022-10-05T11:18:20.493Z,6.80
2022-10-05T11:21:10.246Z,6.40
2022-10-05T11:23:56.864Z,6.40
2022-10-05T11:26:35.442Z,8.10
2022-10-05T11:29:40.409Z,6.90
2022-10-05T11:32:26.738Z,7.40
2022-10-05T11:35:06.296Z,5.90
2022-10-05T11:37:53.760Z,7.70
2022-10-05T11:40:43.578Z,7.20
2022-10-05T11:43:42.326Z,7.40
2022-10-05T11:46:35.252Z,7.20
2022-10-05T11:49:29.181Z,10.50
2022-10-05T11:52:14.062Z,7.50
2022-10-05T11:55:13.488Z,7.40
2022-10-05T11:58:07.705Z,7.40
2022-10-05T12:01:18.053Z,9.10
2022-10-05T12:04:17.416Z,7.70
2022-10-05T12:07:18.754Z,8.90
2022-10-05T12:10:17.501Z,8.90
2022-10-05T12:13:12.242Z,8.90
2022-10-05T12:15:48.189Z,9.90
2022-10-05T12:18:29.711Z,11.40
2022-10-05T12:21:07.596Z,8.20
2022-10-05T12:23:52.453Z,6.90
2022-10-05T12:26:26.221Z,9.80
2022-10-05T12:29:12.202Z,10.50
2022-10-05T12:32:03.406Z,9.10
2022-10-05T12:34:48.691Z,8.40
2022-10-05T12:37:46.734Z,8.80
2022-10-05T12:40:54.938Z,8.10
2022-10-05T12:43:34.347Z,9.30
2022-10-05T12:46:11.849Z,8.60
2022-10-05T12:49:11.011Z,8.80
2022-10-05T12:52:06.511Z,8.50
2022-10-05T12:54:42.130Z,9.90
2022-10-05T12:57:21.477Z,9.40
2022-10-05T12:59:57.378Z,8.90
2022-10-05T13:02:25.087Z,7.60
2022-10-05T13:05:08.997Z,8.30
2022-10-05T13:07:48.847Z,8.80
2022-10-05T13:10:41.300Z,9.20
2022-10-05T13:13:14.791Z,9.30
2022-10-05T13:15:47.027Z,9.30
2022-10-05T13:18:33.975Z,8.20
2022-10-05T13:21:27.429Z,7.80
2022-10-05T13:24:18.893Z,8.90
2022-10-05T13:27:05.199Z,10.40
2022-10-05T13:29:40.446Z,8.70
2022-10-05T13:32:24.058Z,9.30
2022-10-05T13:34:57.953Z,8.40
2022-10-05T13:38:00.340Z,8.20
2022-10-05T13:40:39.212Z,8.10
2022-10-05T13:43:13.364Z,7.90
2022-10-05T13:45:57.106Z,7.80
2022-10-05T13:48:52.649Z,9.30
2022-10-05T13:51:28.116Z,8.50
2022-10-05T13:54:11.284Z,7.50
2022-10-05T13:56:44.791Z,8.20
2022-10-05T13:59:35.340Z,9.30
2022-10-05T14:02:11.049Z,8.10
2022-10-05T14:04:47.099Z,8.40
2022-10-05T14:07:32.196Z,9.20
2022-10-05T14:10:03.208Z,9.30
2022-10-05T14:12:40.462Z,8.80
2022-10-05T14:15:42.081Z,9.70
2022-10-05T14:18:28.265Z,9.40
2022-10-05T14:21:11.380Z,8.60
2022-10-05T14:23:39.432Z,9.60
2022-10-05T14:26:40.241Z,7.90
2022-10-05T14:29:19.425Z,9.00
2022-10-05T14:31:53.981Z,8.00
2022-10-05T14:34:36.692Z,8.00
2022-10-05T14:37:18.734Z,9.60
2022-10-05T14:39:49.625Z,9.90
2022-10-05T14:42:46.257Z,10.70
2022-10-05T14:45:19.606Z,10.20
2022-10-05T14:47:56.323Z,10.90
2022-10-05T14:50:29.581Z,9.90
2022-10-05T15:08:39.254Z,9.40
2022-10-05T15:11:12.925Z,8.00
2022-10-05T15:13:48.653Z,10.20
2022-10-05T15:16:34.229Z,8.20
2022-10-05T15:19:27.076Z,8.40
2022-10-05T15:22:04.420Z,9.90
2022-10-05T15:24:43.617Z,18.50
2022-10-05T15:28:01.583Z,20.30
2022-10-05T15:30:31.611Z,11.70
2022-10-05T15:33:04.463Z,9.70
2022-10-05T15:35:38.373Z,9.10
2022-10-05T15:38:25.761Z,7.80
2022-10-05T15:41:12.700Z,7.20
2022-10-05T15:44:14.724Z,8.40
2022-10-05T15:46:44.262Z,8.30
2022-10-05T15:49:21.184Z,9.40
2022-10-05T15:52:07.531Z,8.80
2022-10-05T15:54:57.369Z,9.30
2022-10-05T15:57:47.530Z,10.20
2022-10-05T16:00:23.104Z,10.10
2022-10-05T16:03:21.650Z,9.20
2022-10-05T16:06:50.041Z,10.60
2022-10-05T16:09:41.203Z,9.90
2022-10-05T16:12:21.291Z,12.60
2022-10-05T16:15:19.065Z,10.70
2022-10-05T16:17:59.750Z,10.70
2022-10-05T16:20:50.183Z,12.80
2022-10-05T16:23:20.651Z,12.20
2022-10-05T16:26:03.873Z,12.00
2022-10-05T16:28:41.472Z,13.10
2022-10-05T16:31:44.064Z,10.70
2022-10-05T16:34:45.297Z,8.50
2022-10-05T16:37:28.281Z,8.40
2022-10-05T16:40:01.146Z,9.10
2022-10-05T16:42:41.482Z,9.60
2022-10-05T16:45:33.257Z,12.70
2022-10-05T16:48:18.382Z,9.80
2022-10-05T16:50:55.162Z,9.30
2022-10-05T16:53:43.999Z,11.30
2022-10-05T16:56:18.204Z,11.60
2022-10-05T16:59:06.753Z,9.30
2022-10-05T17:01:56.669Z,10.30
2022-10-05T17:04:45.112Z,10.90
2022-10-05T17:07:21.617Z,10.40
2022-10-05T17:10:07.029Z,9.30
2022-10-05T17:12:45.587Z,12.90
2022-10-05T17:15:37.460Z,19.80
2022-10-05T17:18:17.076Z,15.80
2022-10-05T17:21:21.488Z,18.30
2022-10-05T17:24:01.116Z,14.90
2022-10-05T17:26:33.871Z,13.80
2022-10-05T17:29:25.312Z,13.10
2022-10-05T17:32:10.405Z,12.60
2022-10-05T17:35:00.683Z,15.10
2022-10-05T17:37:36.323Z,12.40
2022-10-05T17:40:29.739Z,12.60
2022-10-05T17:43:01.377Z,10.10
2022-10-05T17:45:32.012Z,10.50
2022-10-05T17:48:10.087Z,10.80
2022-10-05T17:51:02.952Z,10.70
2022-10-05T17:54:12.555Z,11.70
2022-10-05T17:56:50.223Z,15.20
2022-10-05T17:59:38.758Z,12.40
2022-10-05T18:02:39.934Z,12.20
2022-10-05T18:05:12.935Z,11.50
2022-10-05T18:07:48.826Z,9.60
2022-10-05T18:10:29.055Z,10.80
2022-10-05T18:13:00.030Z,12.10
2022-10-05T18:15:27.722Z,12.80
2022-10-05T18:18:20.931Z,15.90
2022-10-05T18:21:13.920Z,16.10
2022-10-05T18:23:52.951Z,13.80
2022-10-05T18:26:59.799Z,13.60
2022-10-05T18:29:56.584Z,12.30
2022-10-05T18:32:55.155Z,11.20
2022-10-05T18:36:08.495Z,49.40
2022-10-05T18:39:12.813Z,13.20
2022-10-05T18:41:53.135Z,10.80
2022-10-05T18:44:47.192Z,10.80
2022-10-05T18:47:30.675Z,9.90
2022-10-05T18:50:36.118Z,9.40
2022-10-05T18:53:19.140Z,9.30
2022-10-05T18:56:18.537Z,10.60
2022-10-05T18:58:56.541Z,10.90
2022-10-05T19:01:47.219Z,11.40
2022-10-05T19:04:54.181Z,10.50
2022-10-05T19:07:43.576Z,9.70
2022-10-05T19:10:45.020Z,10.10
2022-10-05T19:13:35.085Z,10.00
2022-10-05T19:16:35.197Z,9.10
2022-10-05T19:19:37.346Z,32.50
2022-10-05T19:22:14.221Z,17.20
2022-10-05T19:24:52.088Z,12.10
2022-10-05T19:27:44.688Z,21.30
2022-10-05T19:30:19.823Z,24.90
2022-10-05T19:33:20.308Z,28.70
2022-10-05T19:36:18.495Z,28.70
2022-10-05T19:39:04.372Z,32.60
2022-10-05T19:41:52.210Z,28.50
2022-10-05T19:44:48.406Z,31.50
2022-10-05T19:47:46.823Z,39.40
2022-10-05T19:50:18.411Z,37.40
2022-10-05T19:52:51.093Z,39.50
2022-10-05T19:55:22.517Z,37.80
2022-10-05T19:57:53.233Z,35.60
2022-10-05T20:00:28.467Z,35.90
2022-10-05T20:03:40.704Z,26.60
2022-10-05T20:06:11.504Z,20.30
2022-10-05T20:09:19.346Z,18.90
2022-10-05T20:11:54.957Z,30.30
2022-10-05T20:15:01.953Z,31.60
2022-10-05T20:17:49.569Z,18.80
2022-10-05T20:20:35.386Z,16.90
2022-10-05T20:23:44.576Z,16.50
2022-10-05T20:27:00.133Z,11.70
2022-10-05T20:29:30.313Z,13.70
2022-10-05T20:31:58.595Z,13.00
2022-10-05T20:35:08.315Z,14.50
2022-10-05T20:37:51.234Z,15.70
2022-10-05T20:40:39.576Z,14.60
2022-10-05T20:43:28.236Z,14.40
2022-10-05T20:46:19.797Z,16.40
2022-10-05T20:49:10.795Z,18.30
2022-10-05T20:51:40.287Z,14.60
2022-10-05T20:54:10.028Z,34.60
2022-10-05T20:56:58.028Z,14.10
2022-10-05T20:59:28.201Z,15.60
2022-10-05T21:01:56.284Z,12.50
2022-10-05T21:05:02.167Z,12.30
2022-10-05T21:07:58.097Z,10.50
2022-10-05T21:10:46.191Z,10.90
2022-10-05T21:13:14.488Z,12.20
2022-10-05T21:16:00.866Z,10.60
2022-10-05T21:18:33.551Z,14.00
2022-10-05T21:21:04.180Z,10.60
2022-10-05T21:23:32.687Z,11.20
2022-10-05T21:26:17.169Z,10.30
2022-10-05T21:29:12.513Z,10.90
2022-10-05T21:31:41.204Z,11.60
2022-10-05T21:34:09.236Z,12.60
2022-10-05T21:36:36.971Z,11.10
2022-10-05T21:39:05.892Z,11.00
2022-10-05T21:41:34.588Z,10.70
2022-10-05T21:44:02.782Z,10.60
2022-10-05T21:46:31.611Z,10.10
2022-10-05T21:49:01.630Z,10.40
2022-10-05T21:51:31.356Z,9.20
2022-10-05T21:54:06.152Z,10.50
2022-10-05T21:56:39.132Z,10.70
2022-10-05T21:59:35.225Z,9.40
2022-10-05T22:02:26.980Z,9.50
2022-10-05T22:05:13.250Z,9.90
2022-10-05T22:07:41.363Z,10.50
2022-10-05T22:10:09.881Z,10.30
2022-10-05T22:12:37.720Z,10.40
2022-10-05T22:15:25.844Z,10.70
2022-10-05T22:18:15.664Z,11.20
2022-10-05T22:20:45.411Z,11.40
2022-10-05T22:23:13.691Z,10.10
2022-10-05T22:25:42.498Z,11.60
2022-10-05T22:28:33.012Z,11.00
2022-10-05T22:31:03.779Z,11.00
2022-10-05T22:33:33.680Z,9.90
2022-10-05T22:36:13.188Z,10.70
2022-10-05T22:38:47.612Z,10.00
2022-10-05T22:41:18.993Z,10.20
2022-10-05T22:43:50.288Z,10.40
2022-10-05T22:46:18.793Z,10.70
2022-10-05T22:48:49.015Z,9.60
2022-10-05T22:51:17.187Z,10.30
2022-10-05T22:53:44.894Z,10.70
2022-10-05T22:56:13.825Z,10.80
2022-10-05T22:58:44.811Z,11.70
2022-10-05T23:01:20.934Z,9.20
2022-10-05T23:03:56.052Z,10.30
2022-10-05T23:06:27.760Z,9.90
2022-10-05T23:08:56.604Z,10.10
2022-10-05T23:11:26.912Z,9.10
2022-10-05T23:14:16.567Z,9.40
2022-10-05T23:16:46.188Z,8.90
2022-10-05T23:19:34.904Z,9.20
2022-10-05T23:22:02.729Z,9.80
2022-10-05T23:24:31.020Z,9.50
2022-10-05T23:27:39.279Z,9.10
2022-10-05T23:30:09.659Z,10.00
2022-10-05T23:32:43.865Z,9.80
2022-10-05T23:35:33.309Z,9.90
2022-10-05T23:38:01.698Z,10.30
2022-10-05T23:40:29.515Z,10.10
2022-10-05T23:42:57.317Z,10.00
2022-10-05T23:45:29.050Z,10.60
2022-10-05T23:47:56.784Z,9.60
2022-10-05T23:50:48.383Z,8.60
2022-10-05T23:53:39.840Z,10.40
2022-10-05T23:56:07.672Z,9.30
2022-10-05T23:58:56.008Z,8.80
